METAR Data
IDs: Format: Raw Decoded Include TAF

Data at: 0310 UTC 25 Jan 2020

PABV 250256Z AUTO 14006KT 10SM M18/M21 A2944 RMK AO2 SLPNO 6//// T11781206 FZRANO
PABV 242256Z AUTO 00000KT 10SM CLR M15/M18 A2942 RMK AO2 SLP971 T11501178 FZRANO
PABV 242156Z AUTO 00000KT 10SM CLR M17/M19 A2943 RMK AO2 SNE34 SLP973 P0000 T11721194 FZRANO
PABV 242056Z AUTO 06003KT 10SM -SN BKN100 M18/M21 A2944 RMK AO2 SNB34 SLP976 P0000 60000 T11831206 50001 FZRANO
PABV 242049Z AUTO 06004KT 6SM BR OVC100 M19/M21 A2944 RMK AO2 SNB34E44 P0000 FZRANO
PABV 242041Z AUTO 05003KT 2SM -SN BR OVC100 M19/M21 A2944 RMK AO2 VIS 3/4V5 SNB34 P0000 FZRANO
PABV 241956Z AUTO 00000KT 10SM SCT085 SCT110 M19/M22 A2944 RMK AO2 SNB15E26 SLP978 P0000 T11941217 FZRANO
PABV 241856Z AUTO 14003KT 10SM OVC095 M21/M23 A2943 RMK AO2 SLP975 T12111233 FZRANO
PABV 241756Z AUTO 00000KT 10SM CLR M22/M25 A2943 RMK AO2 SLP975 T12221250 11206 21239 56003 FZRANO
PABV 241656Z AUTO 00000KT 10SM FEW060 OVC110 M21/M23 A2943 RMK AO2 SLP975 T12111233 FZRANO
PABV 241556Z AUTO 00000KT 10SM CLR M22/M24 A2944 RMK AO2 SLP978 T12171239 FZRANO
PABV 241456Z AUTO 00000KT 10SM SCT085 M23/M26 A2944 RMK AO2 SLP978 T12331256 58008 FZRANO
PABV 241356Z AUTO 00000KT 10SM BKN100 M23/M26 A2946 RMK AO2 SLP984 T12331256 FZRANO
PABV 241256Z AUTO 00000KT 9SM CLR M24/M26 A2946 RMK AO2 SLP985 T12391261 FZRANO
PABV 241156Z AUTO 00000KT 10SM CLR M23/M25 A2946 RMK AO2 SLP986 T12281250 11217 21239 58006 FZRANO
PABV 241056Z AUTO 00000KT 10SM FEW001 BKN110 M23/M25 A2947 RMK AO2 SLP988 T12281250 FZRANO
PABV 241049Z AUTO 00000KT 10SM SCT001 BKN110 M23/M25 A2947 RMK AO2 FZRANO
PABV 241024Z AUTO 00000KT 10SM BKN001 M22/M24 A2947 RMK AO2 FZRANO
PABV 241016Z AUTO 15004KT 9SM SCT001 M23/M25 A2947 RMK AO2 FZRANO
PABV 240956Z AUTO 03004KT 10SM FEW110 M23/M26 A2948 RMK AO2 SLP992 T12281256 FZRANO
PABV 240856Z AUTO 15004KT 10SM CLR M23/M26 A2948 RMK AO2 SLP993 T12331261 411111239 52001 FZRANO
PABV 240756Z AUTO 18003KT 10SM CLR M23/M26 A2948 RMK AO2 SLP992 T12331256 FZRANO
PABV 240656Z AUTO 00000KT 10SM CLR M23/M26 A2948 RMK AO2 SLP992 T12331256 FZRANO
PABV 240556Z AUTO 17003KT 10SM CLR M23/M26 A2948 RMK AO2 SLP992 60000 T12331256 11139 21233 55001 FZRANO
PABV 240511Z AUTO 00000KT 10SM SCT001 M22/M24 A2948 RMK AO2 FZRANO
PABV 240456Z AUTO 00000KT 10SM BKN001 M22/M24 A2948 RMK AO2 SNE13 SLP991 P0000 T12171244 FZRANO
PABV 240440Z AUTO 00000KT 10SM SCT001 M22/M24 A2948 RMK AO2 SNE13 P0000 FZRANO
PABV 240427Z AUTO 00000KT 3SM BR CLR M22/M24 A2948 RMK AO2 SNE13 P0000 FZRANO
PABV 240422Z AUTO 00000KT 1 3/4SM BR CLR M22/M24 A2948 RMK AO2 VIS 1/2V5 SNE13 P0000 FZRANO
PABV 240356Z AUTO 00000KT 4SM -SN BR CLR M21/M23 A2948 RMK AO2 SNB55 SLP993 P0000 T12111233 FZRANO
PABV 240256Z AUTO 14005KT 10SM CLR M20/M23 A2948 RMK AO2 SNB30E43 SLP993 P0000 60000 T12001228 56001 FZRANO
PABV 240156Z AUTO 00000KT 8SM CLR M17/M21 A2949 RMK AO2 SNE03 SLP992 P0000 T11721206 FZRANO
PABV 240056Z AUTO 00000KT 7SM -SN CLR M14/M17 A2949 RMK AO2 SNB20E31B53 SLP992 P0000 T11391172 FZRANO
PABV 232356Z AUTO 19004KT 10SM CLR M13/M16 A2949 RMK AO2 SNB28E38 SLP993 P0000 60000 T11331161 11133 21167 56007 FZRANO
PABV 232256Z AUTO 18006KT 10SM FEW030 M16/M17 A2949 RMK AO2 SNE11 SLP995 P0000 T11561172 FZRANO
PABV 232156Z AUTO 22006KT 9SM -SN FEW032 M15/M17 A2950 RMK AO2 SLP997 P0000 T11501172 FZRANO
PABV 232056Z AUTO 20006KT 9SM -SN CLR M17/M18 A2951 RMK AO2 SLP000 P0000 60000 T11671183 58003 FZRANO
PABV 232028Z AUTO 19004KT 9SM -SN FEW023 M16/M18 A2951 RMK AO2 P0000 FZRANO
PABV 231956Z AUTO 24004KT 9SM -SN OVC025 M16/M17 A2952 RMK AO2 SLP003 P0000 T11561172 FZRANO
PABV 231936Z AUTO 18004KT 9SM -SN BKN025 BKN030 BKN035 M16/M17 A2952 RMK AO2 P0000 FZRANO
PABV 231929Z AUTO 19004KT 9SM -SN SCT027 BKN035 M15/M17 A2952 RMK AO2 P0000 FZRANO
PABV 231856Z AUTO 20005KT 9SM -SN FEW008 OVC016 M15/M17 A2952 RMK AO2 SLP004 P0000 T11501167 FZRANO
PABV 231839Z AUTO 19004KT 6SM -SN BR BKN014 OVC027 M14/M16 A2952 RMK AO2 P0000 FZRANO
PABV 231806Z AUTO 21004KT 9SM -SN SCT009 OVC027 M13/M15 A2952 RMK AO2 P0000 FZRANO
PABV 231756Z AUTO 17003KT 9SM -SN BKN009 OVC025 M14/M16 A2952 RMK AO2 SLP004 P0000 60000 T11391156 11111 21161 56014 FZRANO
PABV 231734Z AUTO 19005KT 9SM -SN BKN009 BKN070 M15/M17 A2952 RMK AO2 P0000 FZRANO
PABV 231723Z AUTO 20003KT 6SM -SN BR SCT009 BKN023 BKN070 M16/M17 A2952 RMK AO2 P0000 FZRANO
PABV 231716Z AUTO 21004KT 6SM -SN BR SCT023 BKN070 M16/M18 A2953 RMK AO2 P0000 FZRANO
PABV 231656Z AUTO 17003KT 9SM -SN BKN026 OVC075 M16/M18 A2953 RMK AO2 SLP006 P0000 T11611178 FZRANO
PABV 231640Z AUTO 00000KT 9SM -SN BKN026 M16/M18 A2953 RMK AO2 P0000 FZRANO
PABV 231556Z AUTO 00000KT 9SM -SN FEW025 BKN075 M14/M16 A2954 RMK AO2 SLP011 P0000 T11391161 FZRANO
PABV 231516Z AUTO 00000KT 8SM -SN SCT013 OVC039 M12/M14 A2955 RMK AO2 P0000 FZRANO